Time;durP1;ratioP1;P1;durP2;ratioP2;P2;SDS_P1;SDS_P2;PMS_P1;PMS_P2;Temp;Humidity;BMP_temperature;BMP_pressure;BME280_temperature;BME280_humidity;BME280_pressure;Samples;Min_cycle;Max_cycle;Signal;HPM_P1;HPM_P2
2022/09/27 00:01:00;;;;;;;99.15;93.35;;;;;;;;;;10069402;28;20532;-70
2022/09/27 00:06:04;;;;;;;99.88;94.13;;;;;;;;;;10072695;28;20039;-70
2022/09/27 00:11:01;;;;;;;97.25;91.65;;;;;;;;;;10071758;28;20054;-69
2022/09/27 00:15:58;;;;;;;100.43;94.57;;;;;;;;;;10072701;28;20054;-69
2022/09/27 00:20:56;;;;;;;97.50;91.82;;;;;;;;;;10063750;28;20043;-69
2022/09/27 00:25:58;;;;;;;95.30;89.63;;;;;;;;;;10074781;28;20055;-69
2022/09/27 00:30:55;;;;;;;95.70;89.97;;;;;;;;;;10067401;28;20050;-69
2022/09/27 00:35:51;;;;;;;96.63;90.93;;;;;;;;;;10074184;28;20113;-69
2022/09/27 00:40:47;;;;;;;99.47;93.65;;;;;;;;;;10071929;28;20055;-69
2022/09/27 00:45:50;;;;;;;96.93;91.32;;;;;;;;;;10067327;28;20138;-69
2022/09/27 00:50:49;;;;;;;100.45;94.53;;;;;;;;;;10073692;28;20078;-69
2022/09/27 00:55:50;;;;;;;100.18;94.25;;;;;;;;;;10070635;28;20501;-69
2022/09/27 01:00:49;;;;;;;95.07;89.57;;;;;;;;;;10070028;28;20831;-70
2022/09/27 01:05:46;;;;;;;99.40;93.63;;;;;;;;;;10060488;28;20051;-70
2022/09/27 01:10:48;;;;;;;98.95;93.13;;;;;;;;;;10068676;28;20050;-70
2022/09/27 01:15:54;;;;;;;100.33;94.63;;;;;;;;;;10072741;28;20081;-69
2022/09/27 01:21:08;;;;;;;100.53;94.72;;;;;;;;;;10072285;28;20488;-70
2022/09/27 01:26:11;;;;;;;97.45;91.75;;;;;;;;;;10070585;28;20505;-69
2022/09/27 01:31:16;;;;;;;100.15;94.35;;;;;;;;;;10065496;28;20055;-70
2022/09/27 01:36:16;;;;;;;101.45;95.65;;;;;;;;;;10072407;28;20069;-70
2022/09/27 01:41:31;;;;;;;102.35;96.45;;;;;;;;;;10061198;28;20051;-70
2022/09/27 01:46:30;;;;;;;102.63;96.72;;;;;;;;;;10072616;28;20047;-70
2022/09/27 01:51:36;;;;;;;99.20;93.32;;;;;;;;;;10073385;28;20076;-71
2022/09/27 01:56:34;;;;;;;100.65;94.75;;;;;;;;;;10061535;28;20050;-71
2022/09/27 02:01:32;;;;;;;102.68;96.55;;;;;;;;;;10071389;28;20058;-71
2022/09/27 02:06:32;;;;;;;98.60;92.53;;;;;;;;;;10071709;28;20098;-71
2022/09/27 02:11:28;;;;;;;98.13;92.43;;;;;;;;;;10062486;28;20047;-71
2022/09/27 02:16:48;;;;;;;100.32;94.45;;;;;;;;;;10071508;28;20048;-71
2022/09/27 02:21:51;;;;;;;100.82;94.93;;;;;;;;;;10059319;28;20051;-70
2022/09/27 02:26:51;;;;;;;99.82;94.03;;;;;;;;;;10070817;28;20054;-70
2022/09/27 02:31:48;;;;;;;100.47;94.57;;;;;;;;;;10069896;28;20550;-70
2022/09/27 02:36:44;;;;;;;98.10;92.32;;;;;;;;;;10059438;28;20065;-70
2022/09/27 02:41:41;;;;;;;100.82;94.82;;;;;;;;;;10064557;28;20044;-69
2022/09/27 02:46:46;;;;;;;98.43;92.63;;;;;;;;;;10069647;28;20046;-69
2022/09/27 02:51:50;;;;;;;101.65;95.65;;;;;;;;;;10078178;28;20051;-69
2022/09/27 02:56:46;;;;;;;99.28;93.43;;;;;;;;;;10070160;28;20054;-69
2022/09/27 03:01:48;;;;;;;99.47;93.47;;;;;;;;;;10077029;28;20050;-69
2022/09/27 03:06:45;;;;;;;102.10;96.00;;;;;;;;;;10071884;28;20047;-70
2022/09/27 03:11:41;;;;;;;104.90;98.60;;;;;;;;;;10072155;28;20706;-70
2022/09/27 03:16:38;;;;;;;101.05;94.88;;;;;;;;;;10060751;28;20414;-70
2022/09/27 03:21:34;;;;;;;101.72;95.68;;;;;;;;;;10060797;28;20534;-70
2022/09/27 03:26:30;;;;;;;99.53;93.32;;;;;;;;;;10069711;28;20045;-69
2022/09/27 03:31:27;;;;;;;99.95;93.65;;;;;;;;;;10062812;28;20742;-70
2022/09/27 03:36:24;;;;;;;102.22;95.95;;;;;;;;;;10061784;28;20057;-69
2022/09/27 03:41:20;;;;;;;102.07;95.88;;;;;;;;;;10068168;28;20047;-69
2022/09/27 03:46:17;;;;;;;99.15;93.05;;;;;;;;;;10069185;28;20074;-69
2022/09/27 03:51:13;;;;;;;101.43;95.05;;;;;;;;;;10071240;28;20166;-68
2022/09/27 03:56:09;;;;;;;99.22;93.13;;;;;;;;;;10063063;28;20057;-68
2022/09/27 04:01:06;;;;;;;103.65;97.32;;;;;;;;;;10057181;28;20102;-67
2022/09/27 04:06:03;;;;;;;105.07;98.47;;;;;;;;;;10060493;28;20043;-67
2022/09/27 04:10:59;;;;;;;103.95;97.45;;;;;;;;;;10078180;28;20533;-66
2022/09/27 04:15:55;;;;;;;105.47;98.90;;;;;;;;;;10054261;28;20524;-69
2022/09/27 04:20:52;;;;;;;101.50;95.07;;;;;;;;;;10060237;28;20054;-71
2022/09/27 04:25:49;;;;;;;102.57;96.03;;;;;;;;;;10060524;28;20068;-71
2022/09/27 04:30:45;;;;;;;101.10;94.70;;;;;;;;;;10060761;28;20102;-71
2022/09/27 04:41:00;;;;;;;111.13;104.03;;;;;;;;;;10072562;28;20066;-71
2022/09/27 04:45:57;;;;;;;105.03;98.32;;;;;;;;;;10069920;28;20501;-71
2022/09/27 04:50:57;;;;;;;107.45;99.93;;;;;;;;;;10058961;28;20075;-71
2022/09/27 04:55:54;;;;;;;106.07;99.28;;;;;;;;;;10058094;28;20047;-71
2022/09/27 05:00:56;;;;;;;101.75;95.15;;;;;;;;;;10070330;28;20052;-71
2022/09/27 05:05:53;;;;;;;;;;;;;;;;;;10073042;28;20047;-71
2022/09/27 05:10:49;;;;;;;96.70;90.30;;;;;;;;;;10067552;28;19937;-72
2022/09/27 05:15:45;;;;;;;98.40;91.78;;;;;;;;;;10068467;28;20047;-71
2022/09/27 05:20:43;;;;;;;95.78;89.18;;;;;;;;;;10066198;28;20139;-71
2022/09/27 05:25:39;;;;;;;96.82;90.20;;;;;;;;;;10070395;28;20046;-71
2022/09/27 05:30:36;;;;;;;96.80;90.20;;;;;;;;;;10071279;28;20047;-71
2022/09/27 05:35:34;;;;;;;102.82;95.90;;;;;;;;;;10072192;28;20417;-71
2022/09/27 05:40:30;;;;;;;104.38;97.38;;;;;;;;;;10061894;28;20047;-71
2022/09/27 05:45:43;;;;;;;104.05;97.15;;;;;;;;;;10065340;28;20445;-71
2022/09/27 05:50:39;;;;;;;99.85;93.05;;;;;;;;;;10058870;28;20124;-71
2022/09/27 05:55:36;;;;;;;102.90;95.63;;;;;;;;;;10066329;28;20054;-71
2022/09/27 06:00:34;;;;;;;109.35;101.75;;;;;;;;;;10064347;28;20580;-71
2022/09/27 06:05:33;;;;;;;106.25;99.15;;;;;;;;;;10082011;28;20049;-71
2022/09/27 06:10:30;;;;;;;107.53;100.20;;;;;;;;;;10065834;28;20043;-71
2022/09/27 06:15:27;;;;;;;110.07;102.53;;;;;;;;;;10053008;28;20039;-71
2022/09/27 06:20:23;;;;;;;113.35;105.55;;;;;;;;;;10068341;28;20055;-71
2022/09/27 06:25:19;;;;;;;109.47;101.88;;;;;;;;;;10059286;28;20047;-71
2022/09/27 06:30:16;;;;;;;107.70;100.38;;;;;;;;;;10066918;28;20057;-71
2022/09/27 06:35:15;;;;;;;103.03;96.05;;;;;;;;;;10058571;28;20044;-71
2022/09/27 06:40:12;;;;;;;106.50;99.18;;;;;;;;;;10063469;28;20051;-71
2022/09/27 06:45:09;;;;;;;104.15;97.18;;;;;;;;;;10061758;28;20486;-71
2022/09/27 06:50:05;;;;;;;102.07;95.22;;;;;;;;;;10069455;28;20051;-71
2022/09/27 06:55:03;;;;;;;101.40;94.63;;;;;;;;;;10064994;28;20050;-72
2022/09/27 07:05:15;;;;;;;95.18;88.78;;;;;;;;;;10062734;28;20056;-71
2022/09/27 07:10:12;;;;;;;96.45;90.03;;;;;;;;;;10067919;28;20114;-71
2022/09/27 07:15:08;;;;;;;95.50;89.18;;;;;;;;;;10067667;28;20109;-71
2022/09/27 07:20:05;;;;;;;91.63;85.68;;;;;;;;;;10062608;28;20047;-71
2022/09/27 07:25:01;;;;;;;91.53;85.43;;;;;;;;;;10067523;28;20504;-71
2022/09/27 07:29:57;;;;;;;96.05;90.05;;;;;;;;;;10067131;28;20775;-72
2022/09/27 07:34:54;;;;;;;99.13;92.85;;;;;;;;;;10067242;28;20079;-71
2022/09/27 07:39:50;;;;;;;101.43;95.13;;;;;;;;;;10072973;28;20058;-71
2022/09/27 07:44:46;;;;;;;102.60;95.88;;;;;;;;;;10068494;28;20480;-71
2022/09/27 07:49:42;;;;;;;101.55;95.35;;;;;;;;;;10074702;28;20339;-71
2022/09/27 07:54:39;;;;;;;115.13;108.22;;;;;;;;;;10074076;28;20060;-71
2022/09/27 07:59:35;;;;;;;115.18;108.20;;;;;;;;;;10070922;28;20048;-71
2022/09/27 08:04:31;;;;;;;114.30;107.40;;;;;;;;;;10073958;28;20047;-71
2022/09/27 08:09:28;;;;;;;115.30;108.35;;;;;;;;;;10071409;28;20055;-71
2022/09/27 08:14:24;;;;;;;109.65;102.97;;;;;;;;;;10073439;28;20417;-71
2022/09/27 08:19:20;;;;;;;109.72;103.03;;;;;;;;;;10070534;28;20055;-71
2022/09/27 08:24:16;;;;;;;111.50;104.93;;;;;;;;;;10071381;28;20058;-71
2022/09/27 08:29:13;;;;;;;118.45;111.38;;;;;;;;;;10065851;28;20059;-71
2022/09/27 08:34:09;;;;;;;109.68;103.15;;;;;;;;;;10060010;28;20057;-71
2022/09/27 08:39:05;;;;;;;117.80;110.68;;;;;;;;;;10069837;28;20055;-71
2022/09/27 08:44:20;;;;;;;118.07;111.28;;;;;;;;;;10068626;28;20413;-71
2022/09/27 08:49:20;;;;;;;114.15;107.57;;;;;;;;;;10061919;28;20445;-71
2022/09/27 08:54:19;;;;;;;115.50;108.70;;;;;;;;;;10067864;28;20055;-71
2022/09/27 08:59:20;;;;;;;106.88;100.57;;;;;;;;;;10065404;28;20051;-71
2022/09/27 09:04:30;;;;;;;111.18;104.68;;;;;;;;;;10063113;28;20699;-71
2022/09/27 09:09:29;;;;;;;103.80;97.70;;;;;;;;;;10063282;28;20074;-71
2022/09/27 09:14:35;;;;;;;102.00;95.72;;;;;;;;;;10065013;28;20051;-71
2022/09/27 09:19:54;;;;;;;97.55;91.70;;;;;;;;;;10062309;28;20421;-71
2022/09/27 09:25:09;;;;;;;97.68;91.97;;;;;;;;;;10058240;28;20043;-71
2022/09/27 09:30:19;;;;;;;97.50;91.80;;;;;;;;;;10070362;28;20055;-71
2022/09/27 09:35:22;;;;;;;103.80;97.72;;;;;;;;;;10068693;28;20043;-71
2022/09/27 09:40:21;;;;;;;99.85;93.93;;;;;;;;;;10072663;28;20066;-71
2022/09/27 09:45:32;;;;;;;90.20;85.00;;;;;;;;;;10056976;28;20059;-71
2022/09/27 09:50:41;;;;;;;85.47;80.53;;;;;;;;;;10051841;28;20047;-71
2022/09/27 09:55:37;;;;;;;88.63;83.53;;;;;;;;;;10069256;28;20429;-71
2022/09/27 10:00:34;;;;;;;94.32;88.88;;;;;;;;;;10070132;28;20077;-71
2022/09/27 10:05:30;;;;;;;95.60;89.90;;;;;;;;;;10066027;28;20058;-71
2022/09/27 10:10:27;;;;;;;94.57;88.28;;;;;;;;;;10052862;28;20056;-71
2022/09/27 10:15:25;;;;;;;94.75;89.10;;;;;;;;;;10068150;28;20055;-71
2022/09/27 10:20:40;;;;;;;95.10;89.40;;;;;;;;;;10078109;28;20051;-71
2022/09/27 10:25:48;;;;;;;101.70;95.60;;;;;;;;;;10062686;28;20047;-71
2022/09/27 10:30:53;;;;;;;103.95;97.85;;;;;;;;;;10068786;28;20066;-71
2022/09/27 10:35:50;;;;;;;102.22;96.22;;;;;;;;;;10058962;28;20171;-71
2022/09/27 10:40:48;;;;;;;99.30;93.40;;;;;;;;;;10060657;28;20047;-71
2022/09/27 10:45:44;;;;;;;101.10;95.25;;;;;;;;;;10067580;28;20513;-71
2022/09/27 10:50:53;;;;;;;102.35;96.50;;;;;;;;;;10073322;28;20086;-71
2022/09/27 10:55:54;;;;;;;100.45;94.55;;;;;;;;;;10067772;28;20051;-71
2022/09/27 11:01:11;;;;;;;100.68;94.97;;;;;;;;;;10067493;28;20537;-72
2022/09/27 11:06:23;;;;;;;103.43;97.63;;;;;;;;;;10073025;28;20416;-71
2022/09/27 11:11:23;;;;;;;111.20;104.80;;;;;;;;;;10095921;28;20170;-71
2022/09/27 11:16:28;;;;;;;106.28;100.25;;;;;;;;;;10067459;28;20051;-71
2022/09/27 11:21:25;;;;;;;104.93;99.15;;;;;;;;;;10070655;28;20433;-71
2022/09/27 11:26:43;;;;;;;101.15;95.55;;;;;;;;;;10061373;28;20058;-71
2022/09/27 11:32:15;;;;;;;108.15;102.15;;;;;;;;;;10065998;28;20131;-72
2022/09/27 11:37:16;;;;;;;108.63;102.80;;;;;;;;;;10013789;28;20055;-71
2022/09/27 11:42:32;;;;;;;110.53;104.72;;;;;;;;;;10068444;28;20054;-71
2022/09/27 11:47:46;;;;;;;103.00;97.50;;;;;;;;;;10071524;28;20047;-71
2022/09/27 11:52:49;;;;;;;97.20;92.13;;;;;;;;;;10069274;28;20047;-71
2022/09/27 11:57:45;;;;;;;93.75;88.85;;;;;;;;;;10071105;28;20040;-71
2022/09/27 12:02:42;;;;;;;87.57;82.50;;;;;;;;;;10069447;28;20059;-71
2022/09/27 12:08:02;;;;;;;95.53;90.53;;;;;;;;;;10070307;28;20082;-71
2022/09/27 12:12:59;;;;;;;97.57;92.13;;;;;;;;;;10066872;28;20047;-72
2022/09/27 12:18:03;;;;;;;87.05;82.40;;;;;;;;;;10065776;28;20046;-71
2022/09/27 12:23:28;;;;;;;83.55;79.20;;;;;;;;;;10070504;28;20059;-71
2022/09/27 12:28:39;;;;;;;77.45;73.57;;;;;;;;;;10056774;28;20134;-71
2022/09/27 12:33:54;;;;;;;58.30;55.30;;;;;;;;;;10058449;28;20040;-71
2022/09/27 12:38:56;;;;;;;60.28;57.28;;;;;;;;;;10061220;28;20489;-71
2022/09/27 12:43:53;;;;;;;55.85;53.00;;;;;;;;;;10060616;28;20053;-71
2022/09/27 12:48:49;;;;;;;48.83;46.38;;;;;;;;;;10072180;28;20059;-72
2022/09/27 12:53:59;;;;;;;41.90;39.80;;;;;;;;;;10061834;28;20050;-72
2022/09/27 12:59:04;;;;;;;31.90;30.25;;;;;;;;;;10069258;28;20057;-71
2022/09/27 13:04:03;;;;;;;27.40;25.90;;;;;;;;;;10070626;28;20177;-71
2022/09/27 13:09:06;;;;;;;30.08;28.48;;;;;;;;;;10075573;28;20055;-71
2022/09/27 13:14:04;;;;;;;30.85;29.25;;;;;;;;;;10064571;28;20141;-71
2022/09/27 13:19:01;;;;;;;41.58;39.38;;;;;;;;;;10064458;28;20433;-71
2022/09/27 13:23:57;;;;;;;38.33;36.15;;;;;;;;;;10053969;28;20066;-71
2022/09/27 13:28:57;;;;;;;40.67;38.58;;;;;;;;;;10065328;28;20568;-72
2022/09/27 13:33:54;;;;;;;36.92;34.97;;;;;;;;;;10057088;28;20427;-71
2022/09/27 13:39:10;;;;;;;39.22;36.92;;;;;;;;;;10070310;28;20061;-71
2022/09/27 13:44:25;;;;;;;39.53;37.50;;;;;;;;;;10059243;28;20457;-71
2022/09/27 13:49:30;;;;;;;31.50;29.77;;;;;;;;;;10066094;28;20058;-71
2022/09/27 13:54:32;;;;;;;36.05;34.13;;;;;;;;;;10056352;28;20062;-71
2022/09/27 13:59:55;;;;;;;26.80;25.27;;;;;;;;;;10068966;28;20058;-71
2022/09/27 14:04:51;;;;;;;24.25;22.95;;;;;;;;;;10060328;28;20058;-71
2022/09/27 14:09:50;;;;;;;22.13;20.75;;;;;;;;;;10054579;28;20712;-71
2022/09/27 14:14:48;;;;;;;19.75;18.65;;;;;;;;;;10062918;28;20123;-71
2022/09/27 14:19:45;;;;;;;23.42;22.02;;;;;;;;;;10061192;28;20421;-71
2022/09/27 14:24:41;;;;;;;23.63;22.33;;;;;;;;;;10059651;28;20394;-71
2022/09/27 14:29:39;;;;;;;28.20;26.30;;;;;;;;;;10061668;28;20065;-72
2022/09/27 14:34:36;;;;;;;29.98;28.15;;;;;;;;;;10062993;28;20490;-70
2022/09/27 14:39:36;;;;;;;27.48;25.88;;;;;;;;;;10070345;28;20048;-71
2022/09/27 14:44:34;;;;;;;29.20;27.65;;;;;;;;;;10071465;28;20043;-71
2022/09/27 14:49:31;;;;;;;37.15;35.10;;;;;;;;;;10059869;28;20091;-71
2022/09/27 14:54:29;;;;;;;46.72;44.10;;;;;;;;;;10063332;28;20039;-71
2022/09/27 14:59:33;;;;;;;50.80;48.20;;;;;;;;;;10075163;28;20051;-71
2022/09/27 15:04:30;;;;;;;61.63;58.30;;;;;;;;;;10064047;28;20501;-71
2022/09/27 15:09:27;;;;;;;62.10;58.90;;;;;;;;;;10071785;28;20062;-71
2022/09/27 15:14:31;;;;;;;65.05;61.53;;;;;;;;;;10063834;28;20081;-70
2022/09/27 15:19:28;;;;;;;58.72;55.65;;;;;;;;;;10070552;28;20035;-70
2022/09/27 15:24:39;;;;;;;58.78;55.78;;;;;;;;;;10053889;28;20055;-71
2022/09/27 15:29:36;;;;;;;61.47;58.30;;;;;;;;;;10065769;28;20050;-73
2022/09/27 15:34:33;;;;;;;60.80;57.70;;;;;;;;;;10061347;28;20502;-70
2022/09/27 15:39:32;;;;;;;60.45;57.25;;;;;;;;;;10061732;28;20047;-70
2022/09/27 15:44:43;;;;;;;60.63;57.53;;;;;;;;;;10053800;28;20075;-71
2022/09/27 15:49:40;;;;;;;62.33;58.88;;;;;;;;;;10051172;28;20283;-69
2022/09/27 15:54:36;;;;;;;58.85;55.85;;;;;;;;;;10048941;29;20127;-72
2022/09/27 15:59:33;;;;;;;57.97;54.95;;;;;;;;;;10058784;28;20044;-72
2022/09/27 16:04:30;;;;;;;57.75;54.85;;;;;;;;;;10052287;28;20700;-71
2022/09/27 16:09:26;;;;;;;56.63;53.72;;;;;;;;;;10061863;28;20051;-72
2022/09/27 16:14:23;;;;;;;43.67;41.40;;;;;;;;;;10059859;28;20062;-72
2022/09/27 16:19:19;;;;;;;42.45;40.08;;;;;;;;;;10059740;28;20532;-72
2022/09/27 16:24:16;;;;;;;38.92;36.92;;;;;;;;;;10067255;28;20055;-72
2022/09/27 16:29:13;;;;;;;33.92;32.03;;;;;;;;;;10066318;28;20047;-72
2022/09/27 16:34:09;;;;;;;39.10;36.65;;;;;;;;;;10073473;28;20067;-72
2022/09/27 16:39:07;;;;;;;37.40;35.40;;;;;;;;;;10053213;28;20051;-72
2022/09/27 16:44:07;;;;;;;45.95;43.45;;;;;;;;;;10055134;28;20043;-72
2022/09/27 16:49:03;;;;;;;45.92;43.53;;;;;;;;;;10057677;28;20047;-72
2022/09/27 16:53:59;;;;;;;48.97;46.40;;;;;;;;;;10082506;28;20039;-72
2022/09/27 16:58:55;;;;;;;53.10;50.40;;;;;;;;;;10063574;28;20036;-72
2022/09/27 17:03:52;;;;;;;53.13;50.13;;;;;;;;;;10055488;28;20544;-72
2022/09/27 17:08:52;;;;;;;53.40;50.53;;;;;;;;;;10057967;28;20048;-72
2022/09/27 17:13:52;;;;;;;50.38;47.58;;;;;;;;;;10058090;28;20039;-71
2022/09/27 17:18:48;;;;;;;57.20;54.20;;;;;;;;;;10048166;28;20524;-72
2022/09/27 17:23:45;;;;;;;66.53;63.15;;;;;;;;;;10054702;28;20043;-72
2022/09/27 17:28:48;;;;;;;68.03;64.53;;;;;;;;;;10309149;27;20632;-71
2022/09/27 17:33:46;;;;;;;69.30;65.82;;;;;;;;;;10262109;28;20052;-71
2022/09/27 17:38:43;;;;;;;68.55;65.05;;;;;;;;;;10265457;28;20124;-71
2022/09/27 17:43:50;;;;;;;59.33;56.13;;;;;;;;;;10263564;28;20430;-70
2022/09/27 17:54:03;;;;;;;64.65;61.00;;;;;;;;;;10260320;28;20041;-71
2022/09/27 17:59:00;;;;;;;53.13;50.30;;;;;;;;;;10263707;28;20051;-71
2022/09/27 18:03:58;;;;;;;53.15;50.15;;;;;;;;;;10263897;28;20059;-70
2022/09/27 18:08:54;;;;;;;58.90;55.90;;;;;;;;;;10260358;28;20593;-69
2022/09/27 18:13:51;;;;;;;53.92;51.25;;;;;;;;;;10271856;28;20037;-69
2022/09/27 18:18:47;;;;;;;54.17;51.40;;;;;;;;;;10254115;28;20534;-69
2022/09/27 18:23:43;;;;;;;52.40;49.72;;;;;;;;;;10259580;28;20057;-69
2022/09/27 18:28:40;;;;;;;55.08;52.28;;;;;;;;;;10259711;28;20499;-70
2022/09/27 18:33:37;;;;;;;53.25;50.55;;;;;;;;;;10259606;28;20506;-70
2022/09/27 18:38:34;;;;;;;57.08;54.17;;;;;;;;;;10230064;28;20054;-70
2022/09/27 18:43:30;;;;;;;59.00;56.00;;;;;;;;;;10232601;28;20049;-70
2022/09/27 18:48:34;;;;;;;62.15;59.00;;;;;;;;;;10225695;28;20601;-70
2022/09/27 18:53:33;;;;;;;61.90;58.70;;;;;;;;;;10230510;28;20431;-69
2022/09/27 18:58:31;;;;;;;64.30;61.00;;;;;;;;;;10225512;28;20045;-70
2022/09/27 19:03:28;;;;;;;68.15;64.65;;;;;;;;;;10227807;28;20076;-70
2022/09/27 19:08:25;;;;;;;62.92;59.72;;;;;;;;;;10234151;28;20530;-70
2022/09/27 19:13:21;;;;;;;69.45;65.80;;;;;;;;;;10233752;28;20060;-70
2022/09/27 19:18:24;;;;;;;74.53;70.68;;;;;;;;;;10224864;28;20054;-70
2022/09/27 19:23:23;;;;;;;68.65;65.05;;;;;;;;;;10235226;28;20129;-69
2022/09/27 19:28:20;;;;;;;77.25;73.25;;;;;;;;;;10228466;28;20053;-70
2022/09/27 19:33:16;;;;;;;81.38;77.18;;;;;;;;;;10232855;28;20059;-70
2022/09/27 19:38:12;;;;;;;79.20;75.10;;;;;;;;;;10228581;28;20046;-70
2022/09/27 19:43:09;;;;;;;85.32;81.03;;;;;;;;;;10236449;28;20064;-70
2022/09/27 19:48:05;;;;;;;82.28;78.15;;;;;;;;;;10230792;28;20058;-70
2022/09/27 19:53:01;;;;;;;88.38;83.82;;;;;;;;;;10231107;28;20060;-70
2022/09/27 19:57:58;;;;;;;87.18;82.65;;;;;;;;;;10232010;28;20052;-70
2022/09/27 20:02:54;;;;;;;76.93;72.97;;;;;;;;;;10223047;28;20049;-70
2022/09/27 20:07:52;;;;;;;81.03;76.72;;;;;;;;;;10239801;28;20410;-70
2022/09/27 20:12:50;;;;;;;83.05;78.95;;;;;;;;;;10232663;28;20045;-71
2022/09/27 20:17:46;;;;;;;77.63;73.68;;;;;;;;;;10221045;28;20077;-68
2022/09/27 20:22:43;;;;;;;81.25;77.15;;;;;;;;;;10238671;28;20084;-70
2022/09/27 20:27:40;;;;;;;89.93;85.45;;;;;;;;;;10229696;28;20049;-70
2022/09/27 20:32:36;;;;;;;77.72;73.57;;;;;;;;;;10227547;28;20695;-69
2022/09/27 20:37:32;;;;;;;86.35;81.93;;;;;;;;;;10243407;28;20503;-69
2022/09/27 20:42:29;;;;;;;88.03;83.63;;;;;;;;;;10232938;28;20049;-69
2022/09/27 20:47:26;;;;;;;94.97;90.28;;;;;;;;;;10242460;28;20510;-69
2022/09/27 20:52:22;;;;;;;90.82;85.93;;;;;;;;;;10236615;28;20056;-69
2022/09/27 20:57:24;;;;;;;92.70;88.00;;;;;;;;;;10241179;28;20052;-70
2022/09/27 21:02:40;;;;;;;88.97;84.47;;;;;;;;;;10239991;28;20044;-68
2022/09/27 21:07:37;;;;;;;91.13;86.40;;;;;;;;;;10241401;28;20064;-68
2022/09/27 21:12:33;;;;;;;89.05;84.57;;;;;;;;;;10226283;28;20132;-69
2022/09/27 21:17:29;;;;;;;87.97;83.35;;;;;;;;;;10242454;28;20052;-69
2022/09/27 21:22:25;;;;;;;90.53;85.93;;;;;;;;;;10236279;28;20049;-69
2022/09/27 21:27:22;;;;;;;89.55;84.95;;;;;;;;;;10227563;28;20057;-69
2022/09/27 21:32:18;;;;;;;84.85;80.57;;;;;;;;;;10239569;28;20046;-69
2022/09/27 21:37:14;;;;;;;88.22;83.82;;;;;;;;;;10246344;28;20594;-69
2022/09/27 21:42:10;;;;;;;85.88;81.68;;;;;;;;;;10233659;28;20041;-69
2022/09/27 21:47:06;;;;;;;76.25;72.13;;;;;;;;;;10237789;28;20049;-69
2022/09/27 21:52:03;;;;;;;78.65;74.40;;;;;;;;;;10230050;28;20069;-68
2022/09/27 21:56:59;;;;;;;76.15;72.25;;;;;;;;;;10227242;28;20045;-69
2022/09/27 22:01:55;;;;;;;82.90;78.55;;;;;;;;;;10220152;28;20049;-69
2022/09/27 22:06:53;;;;;;;77.28;73.18;;;;;;;;;;10222406;28;20056;-70
2022/09/27 22:11:49;;;;;;;75.93;71.88;;;;;;;;;;10231811;28;20044;-69
2022/09/27 22:16:46;;;;;;;67.18;63.80;;;;;;;;;;10232969;28;20096;-69
2022/09/27 22:21:42;;;;;;;63.97;60.67;;;;;;;;;;10235368;28;20096;-68
2022/09/27 22:26:39;;;;;;;65.13;61.70;;;;;;;;;;10234191;28;20422;-68
2022/09/27 22:31:36;;;;;;;69.85;66.05;;;;;;;;;;10226330;28;20042;-68
2022/09/27 22:36:33;;;;;;;73.43;69.57;;;;;;;;;;10233380;28;20103;-69
2022/09/27 22:41:29;;;;;;;66.07;62.65;;;;;;;;;;10233692;28;20037;-69
2022/09/27 22:46:26;;;;;;;66.72;63.30;;;;;;;;;;10235722;28;20414;-69
2022/09/27 22:51:22;;;;;;;68.20;64.45;;;;;;;;;;10226180;28;20088;-69
2022/09/27 22:56:19;;;;;;;70.15;66.25;;;;;;;;;;10226282;28;20049;-69
2022/09/27 23:01:15;;;;;;;61.72;58.33;;;;;;;;;;10232917;28;20567;-69
2022/09/27 23:06:12;;;;;;;58.20;55.15;;;;;;;;;;10231104;28;20507;-68
2022/09/27 23:11:13;;;;;;;53.38;50.47;;;;;;;;;;10227301;28;20045;-69
2022/09/27 23:16:11;;;;;;;51.55;48.70;;;;;;;;;;10220274;28;20045;-69
2022/09/27 23:21:08;;;;;;;56.33;53.17;;;;;;;;;;10225161;28;20486;-69
2022/09/27 23:26:05;;;;;;;59.13;56.00;;;;;;;;;;10234863;28;20716;-69
2022/09/27 23:31:03;;;;;;;56.83;53.90;;;;;;;;;;10221044;28;20049;-69
2022/09/27 23:36:01;;;;;;;55.22;52.42;;;;;;;;;;10231351;28;20426;-68
2022/09/27 23:40:57;;;;;;;53.50;50.60;;;;;;;;;;10222682;28;20474;-68
2022/09/27 23:45:56;;;;;;;47.92;45.22;;;;;;;;;;10229295;28;20117;-68
2022/09/27 23:50:52;;;;;;;53.90;50.90;;;;;;;;;;10230268;28;20064;-68
2022/09/27 23:55:58;;;;;;;52.50;49.60;;;;;;;;;;10234996;28;20418;-68
